Flight Track Log - Related Links

Times and Time Zones

All times are in EDT time to prevent confusion due to time zone crossing. See the AWE1940 flight status page for this flight to view local times or setup timezone preferences in your user account.

Time Position Orientation Groundspeed Altitude Reporting Facility
EDT Latitude Longitude Course Direction KTS MPH feet Rate Location/Type
Sat 06:41:18 PM 32.9167 -97.0333 North 173 199 1,200  Level Dallas / Fort Worth TRACON
Sat 06:42:18 PM 32.9667 -97.0333 360° North 218 251 2,900 2,100 Climbing Dallas / Fort Worth TRACON
Sat 06:43:18 PM 33.0333 -97.0167 12° North 235 270 5,400 2,406 Climbing Dallas / Fort Worth TRACON
Sat 06:44:00 PM 32.8534 -96.8000 North  Level FlightAware Approximate
Sat 06:45:00 PM 32.9743 -96.8000 North  Level FlightAware Approximate
Sat 06:45:30 PM 33.1894 -96.9517 19° North 283 326 10,600  Level Fort Worth Center
Sat 06:46:00 PM 33.0951 -96.8000 North  Level FlightAware Approximate
Sat 06:46:30 PM 33.2750 -96.9092 23° Northeast 306 352 11,600  Level Fort Worth Center
Sat 06:47:30 PM 33.3708 -96.8614 23° Northeast 358 412 14,000 2,150 Climbing Fort Worth Center
Sat 06:48:30 PM 33.4686 -96.8108 23° Northeast 375 432 15,900 2,300 Climbing Fort Worth Center
Sat 06:49:30 PM 33.5642 -96.7503 28° Northeast 386 444 18,600 1,950 Climbing Fort Worth Center
Sat 06:50:30 PM 33.6642 -96.6897 27° Northeast 391 450 19,800 1,400 Climbing Fort Worth Center
Sat 06:51:30 PM 33.7661 -96.6214 29° Northeast 403 464 21,400 1,350 Climbing Fort Worth Center
Sat 06:52:30 PM 33.8719 -96.5556 27° Northeast 410 472 22,500 1,200 Climbing Fort Worth Center
Sat 06:53:30 PM 33.9800 -96.4842 29° Northeast 424 488 23,800 1,300 Climbing Fort Worth Center
Sat 06:54:30 PM 34.0881 -96.4078 30° Northeast 431 496 25,100 1,200 Climbing Fort Worth Center
Sat 06:55:30 PM 34.1894 -96.3264 34° Northeast 436 502 26,200 950 Climbing Fort Worth Center
Sat 06:56:30 PM 34.2972 -96.2394 34° Northeast 451 519 27,000 1,050 Climbing Fort Worth Center
Sat 06:57:30 PM 34.4069 -96.1447 35° Northeast 468 539 28,300 1,550 Climbing Fort Worth Center
Sat 06:58:30 PM 34.5167 -96.0600 32° Northeast 473 544 30,100 1,350 Climbing Fort Worth Center
Sat 06:59:30 PM 34.6242 -95.9675 35° Northeast 468 539 31,000 450 Climbing Fort Worth Center
Sat 07:00:30 PM 34.7294 -95.8772 35° Northeast 463 533 31,000  Level Fort Worth Center
Sat 07:01:30 PM 34.8369 -95.7919 33° Northeast 463 533 31,000  Level Fort Worth Center
Sat 07:02:30 PM 34.9253 -95.6967 41° Northeast 463 533 31,000  Level Fort Worth Center
Sat 07:04:19 PM 35.0978 -95.4939 44° Northeast 474 545 31,000  Level Memphis Center
Sat 07:05:19 PM 35.1858 -95.3747 48° Northeast 479 551 31,000  Level Memphis Center
Sat 07:06:19 PM 35.2236 -95.2144 74° East 462 532 31,000  Level Memphis Center
Sat 07:07:19 PM 35.2589 -95.0586 74° East 475 547 31,000  Level Memphis Center
Sat 07:08:19 PM 35.2961 -94.8981 74° East 475 547 31,000  Level Memphis Center
Sat 07:09:19 PM 35.3308 -94.7397 75° East 475 547 31,000  Level Memphis Center
Sat 07:10:19 PM 35.3678 -94.5786 74° East 475 547 31,000  Level Memphis Center
Sat 07:11:19 PM 35.4022 -94.4197 75° East 475 547 31,000  Level Memphis Center
Sat 07:12:19 PM 35.4344 -94.2583 76° East 485 558 31,000  Level Memphis Center
Sat 07:13:19 PM 35.4686 -94.0994 75° East 485 558 31,000  Level Memphis Center
Sat 07:14:19 PM 35.5044 -93.9403 74° East 485 558 31,000  Level Memphis Center
Sat 07:15:19 PM 35.5425 -93.7811 74° East 485 558 31,000  Level Memphis Center
Sat 07:16:19 PM 35.5739 -93.6217 76° East 485 558 31,000  Level Memphis Center
Sat 07:17:19 PM 35.6092 -93.4622 75° East 485 558 31,000  Level Memphis Center
Sat 07:18:19 PM 35.6486 -93.3000 73° East 470 541 31,000  Level Memphis Center
Sat 07:19:19 PM 35.6792 -93.1428 77° East 483 556 31,000  Level Memphis Center
Sat 07:20:19 PM 35.7119 -92.9853 76° East 483 556 31,000  Level Memphis Center
Sat 07:21:19 PM 35.7442 -92.8278 76° East 483 556 31,000  Level Memphis Center
Sat 07:22:19 PM 35.7767 -92.6547 77° East 483 556 31,000  Level Memphis Center
Sat 07:23:19 PM 35.8089 -92.4969 76° East 478 550 31,000  Level Memphis Center
Sat 07:24:19 PM 35.8406 -92.3364 76° East 478 550 31,000  Level Memphis Center
Sat 07:25:19 PM 35.8703 -92.1758 77° East 473 544 31,000  Level Memphis Center
Sat 07:26:19 PM 35.8786 -92.0144 86° East 473 544 31,000  Level Memphis Center
Sat 07:27:19 PM 35.8911 -91.8508 85° East 473 544 31,000  Level Memphis Center
Sat 07:28:19 PM 35.9033 -91.6897 85° East 473 544 31,000  Level Memphis Center
Sat 07:29:19 PM 35.9133 -91.5308 86° East 473 544 31,000  Level Memphis Center
Sat 07:30:19 PM 35.9189 -91.3847 87° East 473 544 31,000  Level Memphis Center
Sat 07:31:19 PM 35.9283 -91.2183 86° East 478 550 31,000  Level Memphis Center
Sat 07:32:19 PM 35.9397 -91.0569 85° East 478 550 31,000  Level Memphis Center
Sat 07:33:19 PM 35.9489 -90.8928 86° East 478 550 31,000  Level Memphis Center
Sat 07:34:19 PM 35.9600 -90.7314 85° East 478 550 31,000  Level Memphis Center
Sat 07:35:19 PM 35.9728 -90.5672 84° East 478 550 31,000  Level Memphis Center
Sat 07:36:19 PM 35.9814 -90.4031 86° East 478 550 31,000  Level Memphis Center
Sat 07:37:19 PM 35.9897 -90.2417 86° East 478 550 31,000  Level Memphis Center
Sat 07:38:19 PM 35.9997 -90.0772 86° East 478 550 31,000  Level Memphis Center
Sat 07:39:19 PM 36.0097 -89.9131 86° East 478 550 31,000  Level Memphis Center
Sat 07:40:19 PM 36.0175 -89.7489 87° East 478 550 31,000  Level Memphis Center
Sat 07:41:19 PM 36.0228 -89.5844 88° East 478 550 31,000  Level Memphis Center
Sat 07:42:19 PM 36.0319 -89.4200 86° East 478 550 31,000  Level Memphis Center
Sat 07:43:19 PM 36.0408 -89.2353 87° East 483 556 31,000  Level Memphis Center
Sat 07:44:19 PM 36.0497 -89.0708 86° East 483 556 31,000  Level Memphis Center
Sat 07:45:19 PM 36.0583 -88.9039 86° East 483 556 31,000  Level Memphis Center
Sat 07:46:19 PM 36.0667 -88.7367 86° East 483 556 31,000  Level Memphis Center
Sat 07:47:19 PM 36.0728 -88.5722 87° East 478 550 31,000  Level Memphis Center
Sat 07:48:19 PM 36.0786 -88.4053 87° East 478 550 31,000  Level Memphis Center
Sat 07:49:19 PM 36.0864 -88.2433 87° East 478 550 31,000  Level Memphis Center
Sat 07:50:19 PM 36.0919 -88.0839 87° East 478 550 31,000  Level Memphis Center
Sat 07:51:19 PM 36.0992 -87.9167 87° East 478 550 31,000  Level Memphis Center
Sat 07:52:19 PM 36.1044 -87.7753 87° East 473 544 31,000  Level Memphis Center
Sat 07:53:19 PM 36.1092 -87.6056 88° East 478 550 31,000  Level Memphis Center
Sat 07:54:19 PM 36.1158 -87.4408 87° East 478 550 31,000  Level Memphis Center
Sat 07:55:19 PM 36.1181 -87.2764 89° East 483 556 31,000  Level Memphis Center
Sat 07:56:19 PM 36.1244 -87.1089 87° East 483 556 31,000  Level Memphis Center
Sat 07:57:19 PM 36.1261 -86.9419 89° East 483 556 31,000  Level Memphis Center
Sat 07:58:19 PM 36.1317 -86.7747 88° East 483 556 31,000  Level Memphis Center
Sat 07:59:19 PM 36.1289 -86.6078 91° East 483 556 31,000  Level Memphis Center
Sat 08:00:19 PM 36.1175 -86.4414 95° East 478 550 31,000  Level Memphis Center
Sat 08:01:19 PM 36.1058 -86.2747 95° East 478 550 31,000  Level Memphis Center
Sat 08:02:19 PM 36.0939 -86.1058 95° East 483 556 31,000  Level Memphis Center
Sat 08:03:19 PM 36.0797 -85.9397 96° East 483 556 31,000  Level Memphis Center
Sat 08:04:52 PM 36.0619 -85.6853 95° East 498 573 31,000  Level Atlanta Center
Sat 08:05:52 PM 36.0494 -85.5206 95° East 498 573 31,000  Level Atlanta Center
Sat 08:06:52 PM 36.0344 -85.3586 96° East 487 560 31,000  Level Atlanta Center
Sat 08:07:52 PM 36.0217 -85.1914 95° East 482 555 31,000  Level Atlanta Center
Sat 08:08:52 PM 36.0083 -85.0269 96° East 482 555 31,000  Level Atlanta Center
Sat 08:09:52 PM 35.9953 -84.8447 95° East 482 555 31,000 -400 Level Atlanta Center
Sat 08:10:52 PM 35.9775 -84.6750 97° East 488 562 30,200 -1,000 Descending Atlanta Center
Sat 08:11:52 PM 35.9614 -84.5108 97° East 488 562 29,000 -600 Descending Atlanta Center
Sat 08:12:52 PM 35.9453 -84.3492 97° East 481 554 29,000  Level Atlanta Center
Sat 08:13:52 PM 35.9308 -84.1822 96° East 481 554 29,000  Level Atlanta Center
Sat 08:14:52 PM 35.9144 -84.0156 97° East 487 560 29,000  Level Atlanta Center
Sat 08:15:52 PM 35.9017 -83.8517 95° East 482 555 29,000  Level Atlanta Center
Sat 08:16:52 PM 35.8992 -83.6850 91° East 482 555 29,000  Level Atlanta Center
Sat 08:17:52 PM 35.8967 -83.5158 91° East 482 555 29,000  Level Atlanta Center
Sat 08:18:52 PM 35.8914 -83.3442 92° East 482 555 29,000  Level Atlanta Center
Sat 08:19:52 PM 35.8883 -83.1750 91° East 488 562 29,000 -150 Level Atlanta Center
Sat 08:20:52 PM 35.8850 -83.0108 91° East 488 562 28,700 -1,150 Descending Atlanta Center
Sat 08:21:52 PM 35.8542 -82.8447 103° East 488 562 26,700 -2,050 Descending Atlanta Center
Sat 08:22:52 PM 35.8214 -82.6839 104° East 488 562 24,600 -2,000 Descending Atlanta Center
Sat 08:23:52 PM 35.7925 -82.5283 103° East 475 547 22,700 -1,800 Descending Atlanta Center
Sat 08:24:52 PM 35.7633 -82.3753 103° East 464 534 21,000 -1,650 Descending Atlanta Center
Sat 08:25:52 PM 35.7361 -82.2275 103° East 458 527 19,400 -1,500 Descending Atlanta Center
Sat 08:26:52 PM 35.7089 -82.0847 103° East 440 506 18,000 -1,631 Descending Atlanta Center
Sat 08:27:35 PM 35.6864 -81.9806 105° East 433 498 16,600 -1,750 Descending Atlanta Center
Sat 08:28:52 PM 35.6519 -81.8050 104° East 415 478 14,500 -1,445 Descending Atlanta Center
Sat 08:29:52 PM 35.6244 -81.6731 104° East 410 472 13,300 -750 Descending Atlanta Center
Sat 08:30:52 PM 35.5889 -81.5592 111° Southeast 382 440 13,000 -550 Descending Atlanta Center
Sat 08:31:52 PM 35.5308 -81.4714 129° Southeast 343 395 12,200 -1,000 Descending Atlanta Center
Sat 08:32:52 PM 35.4747 -81.3892 130° Southeast 326 375 11,000 -600 Descending Atlanta Center
Sat 08:33:52 PM 35.4186 -81.3042 129° Southeast 315 362 11,000  Level Atlanta Center
Sat 08:34:52 PM 35.3647 -81.2244 130° Southeast 315 362 11,000 -250 Level Atlanta Center
Sat 08:35:52 PM 35.3128 -81.1500 131° Southeast 301 346 10,500 -500 Descending Atlanta Center
Sat 08:36:52 PM 35.2569 -81.0781 134° Southeast 291 335 10,000 -1,091 Descending Atlanta Center
Sat 08:38:15 PM 35.1564 -81.0667 175° South 260 299 7,900 -2,000 Descending Atlanta Center
Sat 08:39:16 PM 35.0875 -81.0564 173° South 249 287 5,200 -2,016 Descending Atlanta Center
Sat 08:40:17 PM 35.0522 -80.9867 122° Southeast 241 277 3,800 -1,180 Descending Atlanta Center
Sat 08:41:18 PM 35.0914 -80.9597 29° Northeast 181 208 2,800 -885 Descending Atlanta Center
Sat 08:42:19 PM 35.1331 -80.9606 359° North 138 159 2,000 -787 Descending Atlanta Center
Sat 08:43:20 PM 35.1725 -80.9517 10° North 143 165 1,200 -787 Descending Atlanta Center

Login

Don't have an account? Register now (free) for customized features, flight alerts, and more!